Time;durP1;ratioP1;P1;durP2;ratioP2;P2;SDS_P1;SDS_P2;PMS_P1;PMS_P2;Temp;Humidity;BMP_temperature;BMP_pressure;BME280_temperature;BME280_humidity;BME280_pressure;Samples;Min_cycle;Max_cycle;Signal;HPM_P1;HPM_P2
2022/01/24 00:01:45;;;;;;;36.72;17.80;;;;;;;1.69;100.00;101964.66;4962437;28;20054;-76
2022/01/24 00:04:10;;;;;;;39.53;18.55;;;;;;;1.64;100.00;101959.75;4970117;28;20114;-76
2022/01/24 00:06:37;;;;;;;39.10;18.98;;;;;;;1.66;100.00;101956.84;4934211;28;20563;-76
2022/01/24 00:09:03;;;;;;;39.33;19.88;;;;;;;1.65;100.00;101956.00;4963652;28;20511;-76
2022/01/24 00:11:41;;;;;;;40.03;19.58;;;;;;;1.67;100.00;101950.31;4957142;28;20030;-76
2022/01/24 00:14:40;;;;;;;38.83;18.95;;;;;;;1.68;100.00;101957.50;4945074;28;20042;-76
2022/01/24 00:27:23;;;;;;;44.15;20.42;;;;;;;1.67;100.00;101945.69;4960664;28;20039;-76
2022/01/24 00:29:49;;;;;;;44.03;21.38;;;;;;;1.67;100.00;101947.56;4963902;28;20035;-76
2022/01/24 00:32:14;;;;;;;36.97;18.67;;;;;;;1.66;100.00;101943.16;4970346;28;20035;-75
2022/01/24 00:34:40;;;;;;;40.88;19.92;;;;;;;1.67;100.00;101942.09;4979961;28;20043;-76
2022/01/24 00:37:06;;;;;;;45.25;19.30;;;;;;;1.68;100.00;101938.31;4926141;28;20053;-76
2022/01/24 00:39:31;;;;;;;41.22;19.77;;;;;;;1.67;100.00;101939.34;4960577;28;20031;-75
2022/01/24 00:47:16;;;;;;;41.40;20.80;;;;;;;1.67;100.00;101934.75;4949484;28;20030;-76
2022/01/24 00:54:55;;;;;;;47.03;20.73;;;;;;;1.67;100.00;101931.13;4954351;28;20614;-76
2022/01/24 00:57:20;;;;;;;39.92;20.23;;;;;;;1.70;100.00;101931.59;4955686;28;20066;-76
2022/01/24 00:59:49;;;;;;;38.42;19.45;;;;;;;1.70;100.00;101928.00;4960863;28;20082;-76
2022/01/24 01:02:15;;;;;;;36.28;19.52;;;;;;;1.71;100.00;101926.97;4962656;28;20067;-76
2022/01/24 01:07:30;;;;;;;43.00;20.60;;;;;;;1.73;100.00;101924.88;4959634;28;20070;-76
2022/01/24 01:18:15;;;;;;;41.13;20.10;;;;;;;1.73;100.00;101906.53;4959119;28;21659;-76
2022/01/24 01:21:08;;;;;;;45.40;20.20;;;;;;;1.75;100.00;101906.31;4956623;28;20045;-76
2022/01/24 01:23:35;;;;;;;45.40;21.30;;;;;;;1.74;100.00;101902.75;4948193;28;20050;-75
2022/01/24 01:26:05;;;;;;;44.00;20.70;;;;;;;1.75;100.00;101903.59;4961781;28;20050;-76
2022/01/24 01:28:32;;;;;;;38.67;21.73;;;;;;;1.74;100.00;101899.16;4973266;28;20369;-76
2022/01/24 01:31:03;;;;;;;43.85;20.52;;;;;;;1.67;100.00;101893.66;4964747;28;20030;-75
2022/01/24 01:36:20;;;;;;;43.47;21.23;;;;;;;1.69;100.00;101898.91;4957428;28;20120;-76
2022/01/24 01:39:48;;;;;;;38.95;19.85;;;;;;;1.68;100.00;101889.03;4963773;28;20046;-75
2022/01/24 01:55:16;;;;;;;37.42;18.85;;;;;;;1.48;100.00;101895.22;4976085;28;20129;-75
2022/01/24 01:57:42;;;;;;;39.00;19.75;;;;;;;1.46;100.00;101897.31;4945925;28;20035;-76
2022/01/24 02:00:08;;;;;;;36.65;18.17;;;;;;;1.46;100.00;101899.19;4961374;28;20054;-75
2022/01/24 02:02:33;;;;;;;41.42;19.60;;;;;;;1.39;100.00;101893.66;4966029;28;20050;-76
2022/01/24 02:04:59;;;;;;;40.63;19.65;;;;;;;1.31;100.00;101897.41;4959059;28;20039;-75
2022/01/24 02:07:24;;;;;;;38.00;18.92;;;;;;;1.28;100.00;101889.59;4965954;28;20090;-75
2022/01/24 02:09:50;;;;;;;38.55;19.00;;;;;;;1.28;100.00;101884.13;4968528;28;20066;-75
2022/01/24 02:12:18;;;;;;;37.13;18.58;;;;;;;1.19;100.00;101892.66;4956038;28;20061;-75
2022/01/24 02:14:53;;;;;;;34.15;17.40;;;;;;;1.19;100.00;101896.25;4969544;28;20039;-76
2022/01/24 02:17:28;;;;;;;38.33;19.50;;;;;;;1.13;100.00;101888.00;4965239;28;20034;-76
2022/01/24 02:25:06;;;;;;;33.50;16.90;;;;;;;0.97;100.00;101900.06;4950830;28;20038;-75
2022/01/24 02:27:42;;;;;;;32.63;16.25;;;;;;;0.92;100.00;101894.31;4957809;28;20495;-76
2022/01/24 02:32:38;;;;;;;33.65;16.77;;;;;;;0.80;100.00;101885.81;4952846;28;20106;-76
2022/01/24 02:35:05;;;;;;;34.65;17.65;;;;;;;0.75;100.00;101885.53;4946486;29;20042;-76
2022/01/24 02:37:30;;;;;;;36.33;18.10;;;;;;;0.69;100.00;101891.78;4943508;28;20046;-76
2022/01/24 02:40:01;;;;;;;34.13;17.42;;;;;;;0.63;100.00;101877.84;4956502;29;20039;-76
2022/01/24 02:51:21;;;;;;;36.88;17.75;;;;;;;0.41;100.00;101865.22;4957019;28;20031;-75
2022/01/24 02:53:47;;;;;;;38.13;17.25;;;;;;;0.35;100.00;101860.53;4954779;28;20437;-76
2022/01/24 02:56:13;;;;;;;35.53;17.02;;;;;;;0.33;100.00;101857.97;4958697;29;20035;-75
2022/01/24 02:58:38;;;;;;;41.42;18.77;;;;;;;0.26;100.00;101859.81;4942571;29;20067;-75
2022/01/24 03:01:06;;;;;;;34.63;17.60;;;;;;;0.24;100.00;101861.88;4943291;28;20457;-75
2022/01/24 03:03:33;;;;;;;42.03;18.83;;;;;;;0.21;100.00;101859.53;4942082;29;20098;-76
2022/01/24 03:05:59;;;;;;;39.05;17.88;;;;;;;0.24;100.00;101853.69;4958783;28;20127;-76
2022/01/24 03:08:24;;;;;;;35.05;17.42;;;;;;;0.16;100.00;101856.53;4946446;28;20031;-75
2022/01/24 03:10:51;;;;;;;36.67;18.85;;;;;;;0.13;100.00;101846.81;4943029;29;20042;-76
2022/01/24 03:15:43;;;;;;;38.90;18.23;;;;;;;0.07;100.00;101847.59;4930347;29;20042;-76
2022/01/24 03:18:10;;;;;;;36.22;17.73;;;;;;;0.03;100.00;101849.03;4943061;28;20035;-75
2022/01/24 03:20:36;;;;;;;36.17;17.33;;;;;;;0.04;100.00;101847.16;4967618;28;20032;-75
2022/01/24 03:23:02;;;;;;;35.30;17.77;;;;;;;-0.02;100.00;101854.22;4940288;29;20046;-75
2022/01/24 03:25:28;;;;;;;34.10;17.35;;;;;;;-0.03;100.00;101849.78;4938921;29;20424;-76
2022/01/24 03:27:53;;;;;;;32.72;16.58;;;;;;;-0.06;100.00;101852.91;4935007;28;20035;-76
2022/01/24 03:30:19;;;;;;;32.42;16.63;;;;;;;-0.11;100.00;101844.44;4954171;28;20043;-75
2022/01/24 03:32:44;;;;;;;32.72;16.48;;;;;;;-0.13;100.00;101843.78;4956335;29;20071;-76
2022/01/24 03:35:10;;;;;;;38.88;17.00;;;;;;;-0.18;100.00;101843.50;4957568;28;20063;-75
2022/01/24 03:37:36;;;;;;;33.55;17.23;;;;;;;-0.22;100.00;101834.88;4959064;28;20031;-76
2022/01/24 03:40:02;;;;;;;34.60;17.20;;;;;;;-0.25;100.00;101843.44;4943475;29;20065;-75
2022/01/24 03:42:28;;;;;;;34.38;17.10;;;;;;;-0.28;100.00;101835.59;4948498;29;20039;-76
2022/01/24 03:44:58;;;;;;;33.75;17.13;;;;;;;-0.31;100.00;101838.72;4944906;28;20031;-75
2022/01/24 03:47:44;;;;;;;36.72;17.17;;;;;;;-0.29;100.00;101836.66;4952265;28;20039;-75
2022/01/24 03:50:15;;;;;;;34.88;17.83;;;;;;;-0.36;100.00;101832.97;4959817;28;20070;-75
2022/01/24 03:52:41;;;;;;;33.75;16.75;;;;;;;-0.35;100.00;101832.78;4957209;28;20031;-76
2022/01/24 03:55:06;;;;;;;33.58;15.70;;;;;;;-0.38;100.00;101832.34;4938942;29;20397;-76
2022/01/24 03:57:32;;;;;;;31.40;15.15;;;;;;;-0.40;100.00;101829.78;4950091;28;20118;-75
2022/01/24 03:59:57;;;;;;;32.60;16.88;;;;;;;-0.43;100.00;101829.31;4959037;28;20507;-76
2022/01/24 04:02:24;;;;;;;34.05;16.55;;;;;;;-0.48;100.00;101819.81;4941410;29;20800;-75
2022/01/24 04:04:50;;;;;;;32.30;16.52;;;;;;;-0.50;100.00;101826.50;4942151;28;20030;-76
2022/01/24 04:07:16;;;;;;;32.45;16.08;;;;;;;-0.52;100.00;101818.50;4961112;28;20623;-75
2022/01/24 04:09:42;;;;;;;29.77;15.10;;;;;;;-0.58;100.00;101818.41;4939542;29;20110;-75
2022/01/24 04:12:09;;;;;;;31.90;15.73;;;;;;;-0.61;100.00;101814.19;4940799;29;20038;-75
2022/01/24 04:21:55;;;;;;;31.83;15.40;;;;;;;-0.83;100.00;101796.03;4957708;28;20027;-75
2022/01/24 04:24:23;;;;;;;35.30;16.48;;;;;;;-0.83;100.00;101796.03;4952475;28;20105;-76
2022/01/24 04:26:49;;;;;;;33.00;14.93;;;;;;;-0.88;100.00;101795.75;4956117;28;20032;-75
2022/01/24 04:29:14;;;;;;;34.90;16.98;;;;;;;-0.90;100.00;101802.19;4955796;28;20031;-75
2022/01/24 04:31:40;;;;;;;35.83;16.35;;;;;;;-0.90;100.00;101795.91;4940388;28;20035;-75
2022/01/24 04:34:05;;;;;;;32.72;16.70;;;;;;;-0.94;100.00;101791.88;4957732;28;20491;-75
2022/01/24 04:36:31;;;;;;;35.03;16.95;;;;;;;-0.98;100.00;101793.25;4957309;28;20034;-75
2022/01/24 04:38:56;;;;;;;35.10;16.02;;;;;;;-1.03;100.00;101787.53;4946691;29;20035;-75
2022/01/24 04:41:26;;;;;;;35.63;17.02;;;;;;;-1.04;100.00;101783.94;4955392;28;20047;-75
2022/01/24 04:43:58;;;;;;;35.40;16.90;;;;;;;-1.02;100.00;101786.50;4942494;28;20035;-76
2022/01/24 04:54:26;;;;;;;37.28;16.85;;;;;;;-1.13;100.00;101779.63;4957851;29;20138;-76
2022/01/24 04:56:41;;;;;;;39.30;18.40;;;;;;;-1.14;100.00;101784.22;4948186;28;20035;-76
2022/01/24 04:59:07;;;;;;;41.15;19.25;;;;;;;-1.20;100.00;101770.47;4967069;28;20035;-76
2022/01/24 05:01:32;;;;;;;45.17;18.52;;;;;;;-1.18;100.00;101769.25;4958915;28;20086;-76
2022/01/24 05:03:58;;;;;;;40.25;18.40;;;;;;;-1.26;100.00;101780.25;4949685;28;20047;-75
2022/01/24 05:06:23;;;;;;;42.72;20.55;;;;;;;-1.28;100.00;101776.88;4944732;28;20030;-76
2022/01/24 05:08:49;;;;;;;43.10;20.65;;;;;;;-1.27;100.00;101770.38;4959309;29;20023;-75
2022/01/24 05:11:19;;;;;;;46.90;20.75;;;;;;;-1.27;100.00;101778.56;4955597;28;20067;-75
2022/01/24 05:23:25;;;;;;;45.72;21.33;;;;;;;-1.26;100.00;101768.50;4958824;28;20118;-76
2022/01/24 05:24:43;;;;;;;47.38;22.02;;;;;;;-1.22;100.00;101767.13;4948195;28;20035;-76
2022/01/24 05:27:08;;;;;;;51.85;23.63;;;;;;;-1.22;100.00;101773.41;4959395;28;20054;-75
2022/01/24 05:29:34;;;;;;;55.08;23.77;;;;;;;-1.21;100.00;101772.38;4959606;28;20497;-75
2022/01/24 05:31:59;;;;;;;50.60;24.08;;;;;;;-1.21;100.00;101772.38;4961772;28;20043;-76
2022/01/24 05:34:25;;;;;;;52.15;23.23;;;;;;;-1.21;100.00;101775.09;4960966;28;20027;-76
2022/01/24 05:36:50;;;;;;;54.38;23.80;;;;;;;-1.18;100.00;101788.34;4944592;28;20043;-76
2022/01/24 05:39:16;;;;;;;55.50;24.50;;;;;;;-1.17;100.00;101792.78;4943100;28;20582;-75
2022/01/24 05:41:41;;;;;;;49.35;23.80;;;;;;;-1.14;100.00;101788.84;4973610;28;20112;-75
2022/01/24 05:44:07;;;;;;;49.20;21.95;;;;;;;-1.14;100.00;101791.56;4943036;29;20035;-76
2022/01/24 05:46:33;;;;;;;53.60;23.75;;;;;;;-1.11;100.00;101788.47;4948638;29;20448;-75
2022/01/24 05:48:58;;;;;;;54.95;24.15;;;;;;;-1.12;100.00;101781.31;4942059;28;20031;-75
2022/01/24 05:51:24;;;;;;;51.13;23.08;;;;;;;-1.11;100.00;101793.94;4944073;28;20038;-76
2022/01/24 05:53:49;;;;;;;51.72;23.00;;;;;;;-1.13;100.00;101793.25;4930875;29;20114;-76
2022/01/24 05:56:15;;;;;;;56.45;23.85;;;;;;;-1.10;100.00;101789.31;4960842;28;20031;-78
2022/01/24 05:58:40;;;;;;;54.97;24.02;;;;;;;-1.11;100.00;101793.94;4947908;29;20043;-77
2022/01/24 06:01:06;;;;;;;56.05;24.80;;;;;;;-1.10;100.00;101789.31;4959181;28;20038;-78
2022/01/24 06:03:31;;;;;;;62.92;25.88;;;;;;;-1.12;100.00;101793.06;4959289;28;20082;-79
2022/01/24 06:05:57;;;;;;;60.33;25.88;;;;;;;-1.15;100.00;101787.97;4942683;28;20482;-78
2022/01/24 06:08:22;;;;;;;56.60;24.98;;;;;;;-1.15;100.00;101787.97;4945219;29;20039;-76
2022/01/24 06:10:48;;;;;;;60.53;26.52;;;;;;;-1.16;100.00;101791.75;4949748;29;20027;-76
2022/01/24 06:13:14;;;;;;;55.80;24.98;;;;;;;-1.16;100.00;101797.19;4941597;29;20047;-76
2022/01/24 06:15:40;;;;;;;56.17;25.27;;;;;;;-1.17;100.00;101795.50;4939678;29;20114;-76
2022/01/24 06:18:06;;;;;;;57.40;25.65;;;;;;;-1.20;100.00;101804.06;4926740;29;20468;-76
2022/01/24 06:20:31;;;;;;;67.80;28.13;;;;;;;-1.24;100.00;101794.53;4927211;29;20102;-76
2022/01/24 06:22:57;;;;;;;62.22;26.70;;;;;;;-1.25;100.00;101803.78;4918674;29;20035;-76
2022/01/24 06:25:24;;;;;;;60.85;27.02;;;;;;;-1.28;100.00;101804.16;4956225;29;20118;-76
2022/01/24 06:27:50;;;;;;;63.90;27.98;;;;;;;-1.31;100.00;101806.38;4946020;29;20448;-76
2022/01/24 06:30:16;;;;;;;64.47;25.42;;;;;;;-1.34;100.00;101810.31;4924217;29;20039;-77
2022/01/24 06:32:41;;;;;;;64.22;26.63;;;;;;;-1.33;100.00;101811.19;4941338;29;20031;-77
2022/01/24 06:35:08;;;;;;;63.05;26.23;;;;;;;-1.38;100.00;101809.84;4957458;28;20058;-77
2022/01/24 06:37:34;;;;;;;59.33;26.33;;;;;;;-1.38;100.00;101806.25;4943859;28;20041;-76
2022/01/24 06:40:00;;;;;;;67.80;27.95;;;;;;;-1.43;100.00;101814.13;4945549;29;20133;-76
2022/01/24 06:42:25;;;;;;;61.75;25.08;;;;;;;-1.39;100.00;101815.47;4926920;29;20377;-76
2022/01/24 06:44:52;;;;;;;57.42;26.38;;;;;;;-1.38;100.00;101809.00;4925625;29;20042;-76
2022/01/24 06:47:17;;;;;;;59.38;25.33;;;;;;;-1.36;100.00;101812.38;4936238;29;20504;-77
2022/01/24 06:49:43;;;;;;;57.72;25.77;;;;;;;-1.36;100.00;101812.38;4965862;28;20039;-77
2022/01/24 06:52:08;;;;;;;55.95;25.83;;;;;;;-1.35;100.00;101805.91;4960446;28;20039;-77
2022/01/24 06:54:34;;;;;;;60.30;26.85;;;;;;;-1.36;100.00;101812.38;4954947;28;20035;-76
2022/01/24 06:57:00;;;;;;;61.60;26.50;;;;;;;-1.37;100.00;101813.41;4930145;28;20480;-76
2022/01/24 06:59:26;;;;;;;63.30;25.92;;;;;;;-1.36;100.00;101812.38;4959673;28;20043;-76
2022/01/24 07:01:51;;;;;;;70.25;28.80;;;;;;;-1.38;100.00;101818.00;4971886;28;20030;-76
2022/01/24 07:04:17;;;;;;;66.88;27.65;;;;;;;-1.40;100.00;101821.94;4960724;28;20047;-76
2022/01/24 07:06:42;;;;;;;66.32;27.95;;;;;;;-1.44;100.00;101815.19;4925628;28;20500;-76
2022/01/24 07:09:08;;;;;;;67.20;28.30;;;;;;;-1.43;100.00;101822.31;4958657;28;20039;-76
2022/01/24 07:11:34;;;;;;;61.75;27.40;;;;;;;-1.45;100.00;101818.91;4946084;28;20027;-76
2022/01/24 07:14:00;;;;;;;60.90;26.05;;;;;;;-1.41;100.00;101822.97;4926033;28;20093;-78
2022/01/24 07:16:36;;;;;;;60.60;26.77;;;;;;;-1.40;100.00;101814.59;4953912;28;20456;-73
2022/01/24 07:19:03;;;;;;;61.78;26.15;;;;;;;-1.37;100.00;101824.31;4945140;29;20094;-74
2022/01/24 07:21:29;;;;;;;57.53;25.58;;;;;;;-1.38;100.00;101817.16;4925772;29;20031;-75
2022/01/24 07:23:55;;;;;;;57.83;23.77;;;;;;;-1.35;100.00;101820.38;4923086;29;20520;-75
2022/01/24 07:26:20;;;;;;;51.70;23.42;;;;;;;-1.38;100.00;101819.88;4950383;28;20746;-75
2022/01/24 07:28:46;;;;;;;48.92;23.13;;;;;;;-1.41;100.00;101826.56;4957733;29;20027;-75
2022/01/24 07:31:18;;;;;;;57.25;24.17;;;;;;;-1.40;100.00;101813.78;5129221;27;20375;-75
2022/01/24 07:33:43;;;;;;;55.63;24.02;;;;;;;-1.44;100.00;101820.63;5097572;28;20035;-74
2022/01/24 07:36:09;;;;;;;53.78;23.83;;;;;;;-1.46;100.00;101822.69;5130900;27;20027;-74
2022/01/24 07:38:34;;;;;;;55.78;24.63;;;;;;;-1.48;100.00;101822.84;5110646;27;20032;-75
2022/01/24 07:41:01;;;;;;;56.80;24.02;;;;;;;-1.51;100.00;101819.66;5133002;28;20064;-75
2022/01/24 07:43:26;;;;;;;54.00;24.10;;;;;;;-1.53;100.00;101821.69;5109064;28;20023;-75
2022/01/24 07:45:52;;;;;;;59.58;24.73;;;;;;;-1.56;100.00;101833.84;5131364;27;20035;-75
2022/01/24 07:48:19;;;;;;;53.75;23.25;;;;;;;-1.56;100.00;101836.56;5133277;28;20035;-75
2022/01/24 07:50:46;;;;;;;54.08;24.45;;;;;;;-1.57;100.00;101832.13;5098107;28;20037;-75
2022/01/24 07:53:12;;;;;;;50.13;23.38;;;;;;;-1.58;100.00;101841.34;5110436;27;20035;-75
2022/01/24 07:55:38;;;;;;;53.97;23.90;;;;;;;-1.59;100.00;101840.50;5130239;28;20029;-74
2022/01/24 07:58:03;;;;;;;54.38;24.77;;;;;;;-1.59;100.00;101839.63;5092535;28;20514;-75
2022/01/24 08:00:29;;;;;;;55.22;24.55;;;;;;;-1.59;100.00;101842.34;5114135;27;20047;-74
2022/01/24 08:02:57;;;;;;;62.10;25.92;;;;;;;-1.59;100.00;101845.06;5077928;28;20126;-75
2022/01/24 08:05:22;;;;;;;55.72;25.13;;;;;;;-1.60;100.00;101838.78;5076354;27;20028;-75
2022/01/24 08:07:48;;;;;;;58.05;25.17;;;;;;;-1.57;100.00;101846.59;5132302;28;20066;-75
2022/01/24 08:10:13;;;;;;;51.63;23.13;;;;;;;-1.57;100.00;101846.59;5126958;27;20024;-75
2022/01/24 08:12:42;;;;;;;54.83;25.15;;;;;;;-1.55;100.00;101848.31;5095698;27;20543;-75
2022/01/24 08:15:11;;;;;;;55.25;23.27;;;;;;;-1.53;100.00;101857.13;5131292;27;20027;-75
2022/01/24 08:17:37;;;;;;;56.85;22.98;;;;;;;-1.49;100.00;101859.31;5106924;28;20031;-75
2022/01/24 08:20:02;;;;;;;53.22;24.33;;;;;;;-1.48;100.00;101873.78;5132330;27;20052;-75
2022/01/24 08:22:28;;;;;;;53.75;23.98;;;;;;;-1.47;100.00;101870.88;5095048;28;20031;-75
2022/01/24 08:24:53;;;;;;;52.33;24.35;;;;;;;-1.45;100.00;101873.41;5127682;27;20034;-75
2022/01/24 08:27:19;;;;;;;64.25;25.65;;;;;;;-1.45;100.00;101877.00;5114694;28;20034;-75
2022/01/24 08:29:46;;;;;;;62.42;26.30;;;;;;;-1.40;100.00;101876.44;5125841;27;20053;-75
2022/01/24 08:32:11;;;;;;;57.60;26.35;;;;;;;-1.36;100.00;101869.63;5112654;27;20023;-75
2022/01/24 08:34:38;;;;;;;59.17;27.25;;;;;;;-1.32;100.00;101879.13;5112843;28;20114;-75
2022/01/24 08:37:04;;;;;;;63.53;28.45;;;;;;;-1.27;100.00;101875.84;5126182;27;20028;-75
2022/01/24 08:39:30;;;;;;;62.60;27.48;;;;;;;-1.18;100.00;101874.75;5095728;28;20361;-75
2022/01/24 08:46:49;;;;;;;61.45;26.83;;;;;;;-0.97;100.00;101882.25;5099728;28;20024;-75
2022/01/24 08:49:15;;;;;;;65.30;28.65;;;;;;;-0.90;100.00;101877.72;5096829;28;20051;-76
2022/01/24 08:51:41;;;;;;;59.95;27.17;;;;;;;-0.80;100.00;101878.31;5111094;28;20035;-75
2022/01/24 08:54:07;;;;;;;59.15;27.35;;;;;;;-0.70;100.00;101881.66;5100044;28;20028;-75
2022/01/24 08:56:33;;;;;;;57.28;26.40;;;;;;;-0.59;100.00;101879.47;5095982;28;20031;-75
2022/01/24 08:58:58;;;;;;;60.70;28.02;;;;;;;-0.48;100.00;101876.28;5092329;28;20028;-75
2022/01/24 09:01:24;;;;;;;59.63;28.48;;;;;;;-0.39;100.00;101875.16;5082542;28;20477;-75
2022/01/24 09:03:49;;;;;;;60.50;28.23;;;;;;;-0.27;100.00;101881.84;5094761;28;20153;-75
2022/01/24 09:06:17;;;;;;;65.80;28.35;;;;;;;-0.18;100.00;101887.19;5097575;28;20054;-75
2022/01/24 09:08:43;;;;;;;67.72;28.77;;;;;;;-0.09;100.00;101877.88;5100440;28;20033;-75
2022/01/24 09:11:09;;;;;;;64.05;29.17;;;;;;;0.01;100.00;101886.63;5094507;28;20138;-75
2022/01/24 09:13:34;;;;;;;71.93;31.85;;;;;;;0.09;100.00;101888.41;5094507;28;20035;-75
2022/01/24 09:16:00;;;;;;;68.30;29.63;;;;;;;0.16;100.00;101890.16;5069981;28;20027;-75
2022/01/24 09:18:27;;;;;;;64.00;28.92;;;;;;;0.26;100.00;101894.50;5075033;28;20146;-75
2022/01/24 09:20:53;;;;;;;66.43;29.17;;;;;;;0.38;100.00;101892.94;5082581;28;20028;-75
2022/01/24 09:23:18;;;;;;;65.18;30.35;;;;;;;0.46;100.00;101892.81;5078481;28;20024;-75
2022/01/24 09:25:44;;;;;;;66.00;30.25;;;;;;;0.57;100.00;101897.78;5093082;28;20028;-75
2022/01/24 09:28:09;;;;;;;68.00;29.77;;;;;;;0.65;100.00;101894.06;5086557;28;20031;-75
2022/01/24 09:30:35;;;;;;;66.63;29.58;;;;;;;0.77;100.00;101897.13;5065529;28;20051;-75
2022/01/24 09:33:00;;;;;;;64.35;28.92;;;;;;;0.88;100.00;101904.81;5114086;28;20039;-75
2022/01/24 09:35:28;;;;;;;64.15;28.48;;;;;;;0.96;100.00;101901.94;5117179;28;20063;-75
2022/01/24 09:37:53;;;;;;;70.05;32.00;;;;;;;1.05;100.00;101899.91;5089550;28;20492;-75
2022/01/24 09:40:19;;;;;;;67.47;28.27;;;;;;;1.13;100.00;101902.50;5111955;28;20032;-75
2022/01/24 09:42:45;;;;;;;72.07;31.70;;;;;;;1.18;100.00;101905.50;5099148;28;20051;-75
2022/01/24 09:45:11;;;;;;;66.45;30.17;;;;;;;1.26;100.00;101905.38;5106392;28;20400;-75
2022/01/24 09:47:36;;;;;;;68.22;29.75;;;;;;;1.34;100.00;101898.91;5114544;28;20032;-75
2022/01/24 09:50:04;;;;;;;63.15;28.25;;;;;;;1.42;100.00;101915.19;5116043;28;20031;-75
2022/01/24 09:52:29;;;;;;;66.95;29.52;;;;;;;1.52;100.00;101915.66;5076506;28;20032;-75
2022/01/24 09:54:55;;;;;;;65.45;30.08;;;;;;;1.64;100.00;101910.47;5097893;28;20020;-75
2022/01/24 09:57:20;;;;;;;69.97;31.70;;;;;;;1.71;100.00;101910.53;5086191;28;20032;-75
2022/01/24 09:59:46;;;;;;;58.13;27.88;;;;;;;1.83;100.00;101911.66;5107883;28;20046;-75
2022/01/24 10:02:11;;;;;;;61.75;28.70;;;;;;;1.97;100.00;101909.81;5080297;28;20032;-75
2022/01/24 10:04:37;;;;;;;60.83;29.02;;;;;;;2.09;100.00;101916.44;5097699;28;20119;-75
2022/01/24 10:07:13;;;;;;;64.28;28.80;;;;;;;2.17;100.00;101915.41;5078472;28;20032;-75
2022/01/24 10:09:45;;;;;;;67.40;30.02;;;;;;;2.30;100.00;101915.47;5104856;28;20039;-75
2022/01/24 10:17:35;;;;;;;56.85;27.27;;;;;;;2.64;100.00;101911.75;5097735;28;20024;-76
2022/01/24 10:20:21;;;;;;;58.58;28.67;;;;;;;2.78;100.00;101909.06;5115235;28;20114;-75
2022/01/24 10:23:12;;;;;;;60.00;27.30;;;;;;;2.86;100.00;101912.44;5083870;28;20036;-76
2022/01/24 10:25:49;;;;;;;62.72;29.42;;;;;;;2.97;100.00;101916.47;5094137;28;20032;-75
2022/01/24 10:28:29;;;;;;;58.92;27.42;;;;;;;3.06;100.00;101912.47;5097639;28;20055;-75
2022/01/24 10:31:12;;;;;;;56.03;26.77;;;;;;;3.15;100.00;101910.38;5063824;28;20122;-76
2022/01/24 10:34:02;;;;;;;;;;;;;;;3.26;100.00;101909.75;5094441;28;20038;-75
2022/01/24 10:36:34;;;;;;;53.00;25.73;;;;;;;3.41;100.00;101917.75;5076723;28;19950;-75
2022/01/24 10:39:10;;;;;;;52.65;26.58;;;;;;;3.46;100.00;101908.91;5080495;28;20024;-75
2022/01/24 10:41:56;;;;;;;55.75;26.58;;;;;;;3.56;100.00;101914.78;5085456;28;20099;-75
2022/01/24 10:44:33;;;;;;;53.67;26.20;;;;;;;3.61;100.00;101915.00;5107229;28;20046;-75
2022/01/24 10:47:28;;;;;;;54.08;25.83;;;;;;;3.73;100.00;101912.44;5097148;28;20114;-76
2022/01/24 10:49:53;;;;;;;51.47;25.02;;;;;;;3.89;100.00;101908.38;5083660;28;20417;-75
2022/01/24 10:52:21;;;;;;;51.58;25.95;;;;;;;3.96;100.00;101904.56;5077096;28;20035;-75
2022/01/24 10:54:48;;;;;;;53.67;26.63;;;;;;;4.00;100.00;101911.31;5085932;28;20028;-75
2022/01/24 10:57:24;;;;;;;54.05;25.35;;;;;;;4.08;100.00;101904.72;5089299;28;20556;-75
2022/01/24 10:59:51;;;;;;;56.25;25.98;;;;;;;4.08;100.00;101907.47;5077001;28;20021;-75
2022/01/24 11:02:16;;;;;;;50.00;25.85;;;;;;;4.18;100.00;101905.13;5079405;28;20495;-75
2022/01/24 11:04:42;;;;;;;52.05;25.83;;;;;;;4.24;100.00;101906.16;5091370;28;20051;-75
2022/01/24 11:07:07;;;;;;;56.33;25.83;;;;;;;4.33;100.00;101901.25;5079479;28;20568;-75
2022/01/24 11:09:35;;;;;;;54.45;26.48;;;;;;;4.35;100.00;101902.72;5094518;28;20035;-75
2022/01/24 11:12:01;;;;;;;53.42;26.23;;;;;;;4.41;100.00;101903.75;5089161;28;20076;-75
2022/01/24 11:14:28;;;;;;;52.47;25.83;;;;;;;4.48;100.00;101908.16;5116203;28;20078;-75
2022/01/24 11:16:54;;;;;;;47.88;25.42;;;;;;;4.54;100.00;101902.81;5110422;28;20070;-75
2022/01/24 11:19:26;;;;;;;52.30;25.75;;;;;;;4.61;100.00;101904.47;5076040;28;20114;-75
2022/01/24 11:21:53;;;;;;;49.80;24.10;;;;;;;4.65;100.00;101897.50;5112525;28;20038;-75
2022/01/24 11:24:22;;;;;;;48.00;24.75;;;;;;;4.75;100.00;101901.66;5114753;28;20027;-75
2022/01/24 11:26:48;;;;;;;47.13;23.67;;;;;;;4.77;100.00;101902.28;5092202;28;20020;-75
2022/01/24 11:29:14;;;;;;;47.20;24.92;;;;;;;4.87;100.00;101908.13;5079247;28;20067;-75
2022/01/24 11:32:34;;;;;;;44.83;23.48;;;;;;;4.94;100.00;101900.69;5072162;28;20040;-75
2022/01/24 11:34:59;;;;;;;42.72;21.17;;;;;;;5.04;100.00;101900.16;5029608;28;20038;-75
2022/01/24 11:37:31;;;;;;;42.67;23.00;;;;;;;5.08;100.00;101899.50;5062322;28;20068;-75
2022/01/24 11:39:56;;;;;;;43.20;22.48;;;;;;;5.14;100.00;101898.59;5114063;28;20028;-75
2022/01/24 11:42:33;;;;;;;42.03;21.23;;;;;;;5.26;100.00;101892.38;5096922;28;20438;-75
2022/01/24 11:45:09;;;;;;;41.88;21.35;;;;;;;5.34;100.00;101889.34;5096808;28;20077;-75
2022/01/24 11:47:35;;;;;;;39.78;20.63;;;;;;;5.39;100.00;101886.75;5092004;28;20041;-75
2022/01/24 11:50:00;;;;;;;40.97;20.88;;;;;;;5.44;100.00;101886.91;5079694;28;20047;-75
2022/01/24 11:52:31;;;;;;;37.28;19.48;;;;;;;5.55;100.00;101883.41;5077870;28;20043;-75
2022/01/24 11:57:38;;;;;;;42.03;21.58;;;;;;;6.31;99.39;101888.75;5111249;28;20043;-74
2022/01/24 12:00:07;;;;;;;39.67;20.75;;;;;;;6.51;97.78;101892.06;5082731;28;20020;-75
2022/01/24 12:02:51;;;;;;;37.75;20.75;;;;;;;6.08;100.00;101884.78;5107046;28;20032;-75
2022/01/24 12:05:24;;;;;;;41.95;21.38;;;;;;;5.93;100.00;101879.63;5092271;28;20031;-75
2022/01/24 12:07:51;;;;;;;37.03;20.95;;;;;;;5.89;100.00;101881.16;5094528;28;20032;-75
2022/01/24 12:10:23;;;;;;;38.95;19.10;;;;;;;5.79;100.00;101867.03;5076697;28;20035;-75
2022/01/24 12:12:51;;;;;;;41.00;21.67;;;;;;;5.84;100.00;101869.97;5106191;28;20074;-74
2022/01/24 12:15:41;;;;;;;38.38;20.38;;;;;;;5.82;100.00;101864.69;5076964;28;20582;-75
2022/01/24 12:18:07;;;;;;;33.63;18.77;;;;;;;5.86;100.00;101870.59;5100694;28;20035;-75
2022/01/24 12:20:35;;;;;;;38.63;19.85;;;;;;;5.96;99.37;101864.56;5113898;28;20088;-75
2022/01/24 12:23:16;;;;;;;32.63;18.88;;;;;;;5.92;99.63;101872.41;5116779;28;20066;-75
2022/01/24 12:26:08;;;;;;;34.88;18.67;;;;;;;5.90;99.43;101866.28;5118021;28;20538;-75
2022/01/24 12:28:43;;;;;;;38.90;20.50;;;;;;;5.91;99.67;101862.47;5110860;28;20053;-75
2022/01/24 12:31:27;;;;;;;36.85;20.23;;;;;;;5.93;99.58;101867.75;5094139;28;20051;-75
2022/01/24 12:33:53;;;;;;;33.53;19.02;;;;;;;5.99;97.83;101859.44;5096261;28;20040;-75
2022/01/24 12:36:47;;;;;;;34.33;18.83;;;;;;;6.06;97.59;101856.59;5115950;28;20038;-75
2022/01/24 12:39:13;;;;;;;35.33;18.77;;;;;;;6.09;97.98;101855.28;5109860;28;20040;-75
2022/01/24 12:41:44;;;;;;;35.75;19.00;;;;;;;6.08;99.10;101853.63;5095817;28;20035;-75
2022/01/24 12:46:17;;;;;;;35.03;19.42;;;;;;;6.07;98.94;101854.66;5100668;28;20096;-75
2022/01/24 12:46:55;;;;;;;33.58;18.88;;;;;;;6.14;97.98;101850.75;5103862;28;20078;-75
2022/01/24 12:49:21;;;;;;;39.17;19.63;;;;;;;6.14;97.39;101850.75;5097755;28;20044;-75
2022/01/24 12:51:48;;;;;;;33.05;18.90;;;;;;;6.15;97.06;101846.06;5099460;28;20047;-75
2022/01/24 12:54:14;;;;;;;34.85;18.45;;;;;;;6.16;95.96;101847.78;5112566;27;20036;-75
2022/01/24 12:56:39;;;;;;;34.70;18.95;;;;;;;6.17;96.39;101843.94;5113434;28;20061;-75